Airfield :
LOGIN :

Register | Disclaimer

   EN    FR    IT 

 










Legend :    VFR   Marginal VFR   IFR   Intensive IFR   Very Intensive IFR
Visi :
Ceiling :
>= 8 km
>= 3000ft
5 to 8 km
1000 to 3000 ft
1500m to 5 km
500 to 1000 ft
800 to 1500m
200 to 500 ft
< 800m
< 200 ft
Symbols :   Thunderstorms  Fog  Heavy snow  Heavy precipitations  Wind > 20 kt
SIGMETs :     Misc.  Thunderstorms  Icing  Turbulence  Mountain Waves  Volcanic Ashes







- Airport Elevation : 220 ft
- IATA code : CWL
- Download approach charts


EGFF - Cardiff Rhoose

CURRENT METAR :
  • 201750Z AUTO 27010KT 9999 BKN003 OVC010 18/17 Q1020

EXPIRED METARs :
  • 201720Z AUTO 28010KT 9999 OVC004 19/18 Q1020
  • 201650Z AUTO 27010KT 9999 BKN004 OVC013 19/18 Q1020
  • 201620Z AUTO 28009KT 9999 BKN005 OVC014 19/18 Q1020
  • 201550Z AUTO 27008KT 240V310 9999 BKN011 OVC025 20/17 Q1020
  • 201520Z AUTO 27008KT 9999 BKN010 OVC027 20/18 Q1020

TAF TAF EGFF
Valid from the 20 at 18:00 until the 21 at 18:00 UTC


201658Z 2018/2118 28009KT 9999 SCT008
TEMPO 2018/2112 7000 BKN004
PROB40
TEMPO 2018/2021 2000 -DZ BR BKN001
PROB30
TEMPO 2021/2110 0800 -DZ FG
ATIS : +44 1446 729 319
No reported NOTAMs for that airfield.



MET'MAP, your aeronautical weather chart ! - Copyright ORBIFLY December 2007 - Disclaimer

ORBIFLY MET'MAP TEAM :

Programming & Development : Alexandra Zaïnal
Concept & Development : Baudouin d'Aumeries
Co-Development & Prog : Marc-Olivier Méhu
Technical & hardware support : Manuel Goepfert

Contact : metmap@orbifly.com




SOURCES & CREDITS :

   NOAA